createdAt,value
2022-11-21T00:02:04.089Z,75.24
2022-11-21T00:04:35.981Z,75.29
2022-11-21T00:07:07.901Z,75.02
2022-11-21T00:09:39.922Z,74.90
2022-11-21T00:12:11.750Z,74.81
2022-11-21T00:14:43.659Z,74.85
2022-11-21T00:17:15.597Z,74.88
2022-11-21T00:19:47.531Z,74.88
2022-11-21T00:22:19.346Z,74.90
2022-11-21T00:24:54.180Z,74.72
2022-11-21T00:27:26.302Z,74.97
2022-11-21T00:29:58.116Z,74.60
2022-11-21T00:32:29.972Z,74.59
2022-11-21T00:35:02.200Z,74.62
2022-11-21T00:37:34.442Z,74.89
2022-11-21T00:40:07.113Z,74.82
2022-11-21T00:42:39.043Z,74.87
2022-11-21T00:45:10.996Z,74.87
2022-11-21T00:47:42.815Z,74.56
2022-11-21T00:50:14.827Z,74.50
2022-11-21T00:52:46.849Z,74.58
2022-11-21T00:55:18.658Z,74.61
2022-11-21T00:57:50.840Z,74.57
2022-11-21T01:00:22.825Z,74.67
2022-11-21T01:02:54.786Z,74.24
2022-11-21T01:05:26.615Z,74.34
2022-11-21T01:07:58.538Z,74.33
2022-11-21T01:10:30.539Z,74.28
2022-11-21T01:13:02.944Z,74.56
2022-11-21T01:15:34.969Z,74.72
2022-11-21T01:18:06.805Z,74.57
2022-11-21T01:20:41.389Z,74.59
2022-11-21T01:23:13.264Z,74.69
2022-11-21T01:25:45.170Z,74.75
2022-11-21T01:28:16.935Z,74.63
2022-11-21T01:30:48.813Z,74.61
2022-11-21T01:33:20.655Z,74.35
2022-11-21T01:35:52.577Z,74.39
2022-11-21T01:38:24.521Z,74.50
2022-11-21T01:40:56.398Z,74.16
2022-11-21T01:43:28.276Z,74.22
2022-11-21T01:46:05.841Z,73.96
2022-11-21T01:49:06.809Z,74.25
2022-11-21T01:51:46.033Z,73.96
2022-11-21T01:54:32.036Z,74.27
2022-11-21T01:57:07.386Z,74.11
2022-11-21T01:59:44.505Z,74.10
2022-11-21T02:02:18.974Z,73.96
2022-11-21T02:04:52.577Z,74.10
2022-11-21T02:07:25.293Z,74.41
2022-11-21T02:10:02.057Z,74.26
2022-11-21T02:12:38.433Z,74.14
2022-11-21T02:15:11.385Z,74.40
2022-11-21T02:17:43.209Z,73.87
2022-11-21T02:20:20.135Z,73.89
2022-11-21T02:23:01.874Z,73.96
2022-11-21T02:25:38.535Z,74.02
2022-11-21T02:28:16.175Z,74.05
2022-11-21T02:30:48.030Z,74.03
2022-11-21T02:33:20.264Z,73.88
2022-11-21T02:36:00.191Z,74.00
2022-11-21T02:38:38.269Z,74.03
2022-11-21T02:41:26.765Z,73.62
2022-11-21T02:44:04.276Z,73.55
2022-11-21T02:46:36.298Z,73.47
2022-11-21T02:49:09.400Z,73.52
2022-11-21T02:51:41.225Z,73.51
2022-11-21T02:54:13.085Z,73.63
2022-11-21T02:56:44.903Z,73.72
2022-11-21T02:59:16.767Z,73.54
2022-11-21T03:01:48.573Z,73.39
2022-11-21T03:04:20.580Z,73.50
2022-11-21T03:06:52.795Z,73.54
2022-11-21T03:09:24.570Z,73.67
2022-11-21T03:11:56.468Z,73.83
2022-11-21T03:14:28.558Z,73.83
2022-11-21T03:17:00.578Z,74.12
2022-11-21T03:19:32.427Z,74.30
2022-11-21T03:22:04.240Z,74.74
2022-11-21T03:24:36.020Z,74.71
2022-11-21T03:27:08.115Z,74.83
2022-11-21T03:29:40.013Z,75.34
2022-11-21T03:32:11.949Z,75.57
2022-11-21T03:34:44.738Z,76.40
2022-11-21T03:37:17.034Z,76.62
2022-11-21T03:39:48.891Z,76.62
2022-11-21T03:42:20.646Z,76.94
2022-11-21T03:44:52.503Z,76.98
2022-11-21T03:47:25.741Z,76.90
2022-11-21T03:49:57.685Z,77.19
2022-11-21T03:52:29.483Z,77.50
2022-11-21T03:55:01.487Z,77.30
2022-11-21T03:57:33.582Z,77.74
2022-11-21T04:00:05.866Z,77.71
2022-11-21T04:02:38.069Z,77.95
2022-11-21T04:05:10.186Z,77.74
2022-11-21T04:07:42.071Z,77.80
2022-11-21T04:10:14.018Z,77.84
2022-11-21T04:12:45.843Z,77.91
2022-11-21T04:15:17.672Z,78.11
2022-11-21T04:17:49.523Z,78.54
2022-11-21T04:20:21.392Z,78.56
2022-11-21T04:22:53.406Z,78.46
2022-11-21T04:25:25.280Z,79.10
2022-11-21T04:27:58.101Z,79.01
2022-11-21T04:30:30.682Z,79.36
2022-11-21T04:33:02.535Z,79.49
2022-11-21T04:35:34.407Z,79.38
2022-11-21T04:38:07.931Z,79.43
2022-11-21T04:40:40.008Z,79.55
2022-11-21T04:43:12.159Z,79.78
2022-11-21T04:45:44.619Z,79.66
2022-11-21T04:48:16.437Z,79.99
2022-11-21T04:50:48.351Z,79.72
2022-11-21T04:53:20.313Z,79.90
2022-11-21T04:55:52.188Z,80.09
2022-11-21T04:58:24.121Z,80.20
2022-11-21T05:00:56.114Z,80.31
2022-11-21T05:03:27.963Z,80.25
2022-11-21T05:05:59.834Z,80.53
2022-11-21T05:08:31.810Z,80.37
2022-11-21T05:11:22.446Z,80.27
2022-11-21T05:13:55.070Z,80.48
2022-11-21T05:16:26.931Z,80.47
2022-11-21T05:18:58.784Z,80.57
2022-11-21T05:21:30.573Z,80.58
2022-11-21T05:24:02.845Z,80.48
2022-11-21T05:26:34.748Z,80.68
2022-11-21T05:29:07.188Z,80.83
2022-11-21T05:31:39.204Z,80.81
2022-11-21T05:34:11.066Z,80.87
2022-11-21T05:36:42.878Z,81.00
2022-11-21T05:39:15.953Z,80.98
2022-11-21T05:41:47.843Z,80.68
2022-11-21T05:44:19.833Z,80.29
2022-11-21T05:46:51.672Z,80.07
2022-11-21T05:49:23.576Z,80.09
2022-11-21T05:51:55.529Z,80.30
2022-11-21T05:54:27.554Z,80.47
2022-11-21T05:56:59.498Z,80.47
2022-11-21T05:59:31.584Z,80.50
2022-11-21T06:02:22.287Z,80.50
2022-11-21T06:04:54.185Z,80.91
2022-11-21T06:07:26.106Z,80.96
2022-11-21T06:09:58.041Z,81.22
2022-11-21T06:12:29.921Z,81.28
2022-11-21T06:15:01.832Z,81.29
2022-11-21T06:17:33.699Z,81.40
2022-11-21T06:20:06.091Z,81.34
2022-11-21T06:22:37.941Z,81.33
2022-11-21T06:25:10.129Z,81.75
2022-11-21T06:27:41.913Z,81.77
2022-11-21T06:30:17.675Z,81.60
2022-11-21T06:32:54.686Z,81.99
2022-11-21T06:35:26.627Z,81.64
2022-11-21T06:37:58.749Z,81.62
2022-11-21T06:40:30.530Z,81.51
2022-11-21T06:43:02.527Z,81.42
2022-11-21T06:45:34.345Z,81.52
2022-11-21T06:48:06.494Z,81.51
2022-11-21T06:50:38.711Z,81.63
2022-11-21T06:53:10.641Z,81.62
2022-11-21T06:55:42.490Z,81.66
2022-11-21T06:58:14.397Z,81.71
2022-11-21T07:00:48.650Z,81.54
2022-11-21T07:03:21.128Z,81.67
2022-11-21T07:05:58.406Z,81.50
2022-11-21T07:08:31.682Z,81.40
2022-11-21T07:13:57.916Z,80.50
2022-11-21T07:16:32.360Z,80.21
2022-11-21T07:19:04.360Z,79.86
2022-11-21T07:21:36.297Z,80.00
2022-11-21T07:24:08.180Z,80.17
2022-11-21T07:26:39.953Z,80.02
2022-11-21T07:29:11.777Z,80.02
2022-11-21T07:31:43.583Z,79.91
2022-11-21T07:34:15.451Z,79.84
2022-11-21T07:36:47.263Z,79.80
2022-11-21T07:39:19.481Z,79.43
2022-11-21T07:41:51.302Z,79.48
2022-11-21T07:44:23.194Z,79.54
2022-11-21T07:46:55.614Z,79.59
2022-11-21T07:49:27.874Z,79.78
2022-11-21T07:52:00.004Z,79.42
2022-11-21T07:54:31.851Z,79.35
2022-11-21T07:57:03.790Z,79.42
2022-11-21T07:59:35.791Z,79.53
2022-11-21T08:02:07.682Z,79.46
2022-11-21T08:04:39.637Z,79.29
2022-11-21T08:07:11.503Z,78.75
2022-11-21T08:09:43.737Z,78.66
2022-11-21T08:12:16.097Z,78.50
2022-11-21T08:14:47.968Z,78.41
2022-11-21T08:17:19.989Z,78.63
2022-11-21T08:19:52.117Z,78.52
2022-11-21T08:22:24.025Z,78.57
2022-11-21T08:24:55.813Z,78.89
2022-11-21T08:27:28.274Z,78.42
2022-11-21T08:30:00.123Z,78.63
2022-11-21T08:32:31.962Z,78.65
2022-11-21T08:35:04.416Z,78.68
2022-11-21T08:37:36.289Z,78.74
2022-11-21T08:40:08.471Z,77.65
2022-11-21T08:42:40.465Z,77.68
2022-11-21T08:45:12.262Z,78.09
2022-11-21T08:47:44.102Z,78.18
2022-11-21T08:50:15.931Z,77.84
2022-11-21T08:52:47.759Z,77.86
2022-11-21T08:55:20.044Z,78.18
2022-11-21T08:57:51.911Z,78.21
2022-11-21T09:00:23.836Z,78.03
2022-11-21T09:02:55.761Z,77.74
2022-11-21T09:05:27.682Z,77.51
2022-11-21T09:08:00.027Z,77.58
2022-11-21T09:10:31.881Z,77.09
2022-11-21T09:13:03.779Z,77.17
2022-11-21T09:15:54.185Z,77.28
2022-11-21T09:18:26.237Z,77.18
2022-11-21T09:20:59.060Z,76.97
2022-11-21T09:23:30.933Z,77.16
2022-11-21T09:26:02.910Z,77.22
2022-11-21T09:28:35.882Z,77.02
2022-11-21T09:31:08.648Z,77.32
2022-11-21T09:33:40.529Z,77.67
2022-11-21T09:36:12.383Z,77.79
2022-11-21T09:38:44.213Z,77.60
2022-11-21T09:41:50.233Z,77.53
2022-11-21T09:44:34.140Z,77.44
2022-11-21T09:47:25.330Z,77.34
2022-11-21T09:50:05.175Z,77.44
2022-11-21T09:53:05.639Z,77.55
2022-11-21T09:55:59.580Z,77.44
2022-11-21T09:58:32.763Z,77.86
2022-11-21T10:01:04.931Z,77.69
2022-11-21T10:03:45.068Z,77.56
2022-11-21T10:06:36.720Z,77.89
2022-11-21T10:09:36.342Z,78.28
2022-11-21T10:12:35.706Z,78.15
2022-11-21T10:15:38.136Z,78.27
2022-11-21T10:18:32.946Z,78.62
2022-11-21T10:21:19.076Z,78.56
2022-11-21T10:23:56.414Z,78.37
2022-11-21T10:26:58.280Z,78.28
2022-11-21T10:29:39.147Z,78.53
2022-11-21T10:32:22.632Z,78.40
2022-11-21T10:35:25.266Z,78.63
2022-11-21T10:38:00.756Z,78.71
2022-11-21T10:40:36.890Z,78.72
2022-11-21T10:43:29.632Z,78.70
2022-11-21T10:46:01.572Z,78.74
2022-11-21T10:48:33.466Z,78.83
2022-11-21T10:51:25.841Z,78.96
2022-11-21T10:54:30.996Z,78.67
2022-11-21T10:57:14.540Z,78.40
2022-11-21T11:00:13.926Z,77.88
2022-11-21T11:02:57.802Z,77.43
2022-11-21T11:05:31.421Z,77.09
2022-11-21T11:08:14.110Z,76.82
2022-11-21T11:11:01.789Z,76.88
2022-11-21T11:13:51.694Z,76.71
2022-11-21T11:16:24.523Z,76.71
2022-11-21T11:19:03.410Z,75.90
2022-11-21T11:21:41.063Z,74.28
2022-11-21T11:24:12.824Z,73.89
2022-11-21T11:26:48.661Z,71.37
2022-11-21T11:29:26.623Z,71.61
2022-11-21T11:31:58.685Z,70.11
2022-11-21T11:34:40.143Z,65.92
2022-11-21T11:37:39.843Z,66.88
2022-11-21T11:40:36.252Z,56.10
2022-11-21T11:43:29.778Z,60.97
2022-11-21T11:46:42.147Z,52.82
2022-11-21T11:49:28.715Z,56.12
2022-11-21T11:52:03.645Z,58.63
2022-11-21T11:54:47.056Z,56.47
2022-11-21T11:57:19.247Z,60.13
2022-11-21T12:00:22.348Z,56.26
2022-11-21T12:03:11.852Z,57.26
2022-11-21T12:05:56.749Z,58.04
2022-11-21T12:08:56.587Z,57.22
2022-11-21T12:11:52.663Z,60.26
2022-11-21T12:14:55.571Z,59.17
2022-11-21T12:17:34.251Z,59.23
2022-11-21T12:20:14.941Z,58.77
2022-11-21T12:22:49.056Z,60.15
2022-11-21T12:25:25.547Z,60.62
2022-11-21T12:27:57.408Z,60.89
2022-11-21T12:30:41.414Z,61.38
2022-11-21T12:33:20.542Z,59.43
2022-11-21T12:36:21.537Z,59.84
2022-11-21T12:39:22.643Z,58.04
2022-11-21T12:42:42.236Z,59.79
2022-11-21T12:45:24.424Z,59.65
2022-11-21T12:48:23.919Z,58.75
2022-11-21T12:51:20.388Z,60.07
2022-11-21T12:54:33.441Z,57.89
2022-11-21T12:57:15.496Z,59.87
2022-11-21T12:59:56.322Z,58.40
2022-11-21T13:02:42.936Z,59.44
2022-11-21T13:05:23.784Z,60.49
2022-11-21T13:08:02.306Z,61.28
2022-11-21T13:10:35.280Z,61.63
2022-11-21T13:13:09.719Z,62.41
2022-11-21T13:15:57.643Z,62.19
2022-11-21T13:18:34.063Z,62.22
2022-11-21T13:21:05.923Z,62.44
2022-11-21T13:23:42.016Z,61.63
2022-11-21T13:26:26.185Z,61.65
2022-11-21T13:29:27.358Z,61.84
2022-11-21T13:31:59.449Z,62.89
2022-11-21T13:34:31.231Z,62.91
2022-11-21T13:37:04.204Z,62.90
2022-11-21T13:39:37.169Z,62.97
2022-11-21T13:42:28.989Z,62.83
2022-11-21T13:45:40.579Z,63.04
2022-11-21T13:48:36.635Z,63.50
2022-11-21T13:51:27.292Z,63.99
2022-11-21T13:54:26.706Z,64.28
2022-11-21T13:57:25.615Z,64.30
2022-11-21T14:00:13.237Z,64.72
2022-11-21T14:03:08.720Z,65.10
2022-11-21T14:06:01.500Z,65.44
2022-11-21T14:08:33.716Z,65.45
2022-11-21T14:11:26.621Z,66.22
2022-11-21T14:13:58.578Z,65.63
2022-11-21T14:16:35.684Z,66.08
2022-11-21T14:19:13.743Z,66.55
2022-11-21T14:21:46.308Z,66.55
2022-11-21T14:24:19.679Z,66.63
2022-11-21T14:26:52.692Z,66.71
2022-11-21T14:29:40.837Z,67.29
2022-11-21T14:32:16.035Z,67.09
2022-11-21T14:34:47.914Z,66.95
2022-11-21T14:37:20.844Z,67.25
2022-11-21T14:39:57.104Z,67.14
2022-11-21T14:42:36.130Z,67.73
2022-11-21T14:45:15.314Z,67.83
2022-11-21T14:47:51.760Z,67.65
2022-11-21T14:50:31.678Z,67.95
2022-11-21T14:53:04.249Z,67.91
2022-11-21T14:55:36.172Z,68.30
2022-11-21T14:58:10.203Z,68.34
2022-11-21T15:03:34.491Z,68.47
2022-11-21T15:06:10.887Z,68.39
2022-11-21T15:11:43.444Z,68.28
2022-11-21T15:14:34.851Z,68.74
2022-11-21T15:17:10.735Z,68.36
2022-11-21T15:19:43.460Z,68.55
2022-11-21T15:22:35.669Z,69.03
2022-11-21T15:25:15.845Z,68.92
2022-11-21T15:28:15.366Z,69.15
2022-11-21T15:30:47.826Z,68.85
2022-11-21T15:33:20.412Z,69.18
2022-11-21T15:35:53.853Z,68.93
2022-11-21T15:38:33.714Z,69.64
2022-11-21T15:41:10.508Z,69.94
2022-11-21T15:43:46.162Z,69.48
2022-11-21T15:46:23.659Z,69.98
2022-11-21T15:49:25.157Z,70.09
2022-11-21T15:52:10.494Z,70.04
2022-11-21T15:54:42.707Z,70.10
2022-11-21T15:57:17.100Z,70.22
2022-11-21T15:59:49.885Z,70.09
2022-11-21T16:02:22.147Z,70.29
2022-11-21T16:04:54.666Z,70.13
2022-11-21T16:07:26.679Z,69.98
2022-11-21T16:09:58.896Z,70.00
2022-11-21T16:12:30.825Z,70.11
2022-11-21T16:15:02.781Z,70.16
2022-11-21T16:17:34.885Z,70.47
2022-11-21T16:20:07.139Z,70.20
2022-11-21T16:22:42.808Z,70.08
2022-11-21T16:25:18.908Z,70.29
2022-11-21T16:27:51.182Z,70.49
2022-11-21T16:30:23.050Z,70.01
2022-11-21T16:32:56.220Z,70.03
2022-11-21T16:35:28.080Z,69.61
2022-11-21T16:37:59.958Z,69.84
2022-11-21T16:40:31.832Z,69.99
2022-11-21T16:43:11.988Z,70.17
2022-11-21T16:45:44.053Z,70.37
2022-11-21T16:48:16.091Z,70.71
2022-11-21T16:50:48.506Z,70.58
2022-11-21T16:53:20.405Z,70.61
2022-11-21T16:56:00.636Z,71.09
2022-11-21T16:58:32.663Z,70.69
2022-11-21T17:01:11.033Z,71.29
2022-11-21T17:03:44.449Z,71.13
2022-11-21T17:06:18.878Z,71.34
2022-11-21T17:08:50.981Z,71.24
2022-11-21T17:11:28.954Z,71.70
2022-11-21T17:14:03.288Z,71.45
2022-11-21T17:16:35.694Z,71.44
2022-11-21T17:19:10.961Z,71.82
2022-11-21T17:21:42.928Z,71.81
2022-11-21T17:24:14.926Z,71.60
2022-11-21T17:26:46.763Z,71.60
2022-11-21T17:29:18.565Z,72.01
2022-11-21T17:31:51.087Z,71.99
2022-11-21T17:34:25.932Z,71.98
2022-11-21T17:37:01.723Z,71.78
2022-11-21T17:39:34.118Z,71.95
2022-11-21T17:42:06.107Z,72.50
2022-11-21T17:44:38.188Z,72.49
2022-11-21T17:47:10.182Z,72.49
2022-11-21T17:49:42.064Z,72.78
2022-11-21T17:52:13.851Z,72.62
2022-11-21T17:54:47.094Z,72.71
2022-11-21T17:57:19.517Z,73.03
2022-11-21T17:59:51.674Z,73.00
2022-11-21T18:02:24.388Z,73.06
2022-11-21T18:04:56.342Z,73.28
2022-11-21T18:07:29.860Z,73.25
2022-11-21T18:10:27.524Z,73.32
2022-11-21T18:12:53.857Z,74.02
2022-11-21T18:15:25.740Z,74.10
2022-11-21T18:17:57.821Z,74.26
2022-11-21T18:20:29.997Z,74.04
2022-11-21T18:23:01.822Z,74.18
2022-11-21T18:25:37.963Z,74.75
2022-11-21T18:28:10.251Z,74.66
2022-11-21T18:30:42.179Z,75.05
2022-11-21T18:33:18.761Z,74.87
2022-11-21T18:35:51.002Z,75.11
2022-11-21T18:38:46.838Z,75.70
2022-11-21T18:41:17.404Z,76.22
2022-11-21T18:44:03.199Z,76.72
2022-11-21T18:46:36.622Z,76.04
2022-11-21T18:49:08.843Z,75.78
2022-11-21T18:51:40.931Z,76.08
2022-11-21T18:54:13.031Z,76.36
2022-11-21T18:56:45.062Z,76.66
2022-11-21T18:59:17.326Z,76.64
2022-11-21T19:01:49.924Z,77.04
2022-11-21T19:04:22.209Z,77.16
2022-11-21T19:06:54.656Z,77.35
2022-11-21T19:09:32.560Z,77.68
2022-11-21T19:12:05.331Z,77.65
2022-11-21T19:14:37.230Z,77.73
2022-11-21T19:17:09.183Z,78.65
2022-11-21T19:19:41.042Z,78.53
2022-11-21T19:22:13.042Z,78.97
2022-11-21T19:24:45.049Z,78.63
2022-11-21T19:27:17.020Z,78.99
2022-11-21T19:29:53.724Z,78.78
2022-11-21T19:32:25.609Z,78.74
2022-11-21T19:34:57.661Z,79.03
2022-11-21T19:37:30.051Z,78.79
2022-11-21T19:40:01.927Z,78.97
2022-11-21T19:42:33.774Z,79.10
2022-11-21T19:45:06.645Z,79.35
2022-11-21T19:47:38.550Z,79.21
2022-11-21T19:50:10.698Z,79.31
2022-11-21T19:52:42.522Z,79.26
2022-11-21T19:55:14.473Z,79.01
2022-11-21T19:57:46.291Z,78.77
2022-11-21T20:00:18.741Z,78.71
2022-11-21T20:02:51.425Z,78.81
2022-11-21T20:05:23.364Z,78.51
2022-11-21T20:08:01.657Z,78.66
2022-11-21T20:10:35.909Z,78.51
2022-11-21T20:13:07.842Z,78.61
2022-11-21T20:15:39.760Z,78.90
2022-11-21T20:18:12.505Z,78.72
2022-11-21T20:20:44.421Z,79.06
2022-11-21T20:23:16.277Z,79.13
2022-11-21T20:25:51.518Z,79.00
2022-11-21T20:28:23.418Z,79.09
2022-11-21T20:30:55.290Z,79.07
2022-11-21T20:33:27.196Z,78.75
2022-11-21T20:36:03.520Z,78.84
2022-11-21T20:38:36.350Z,79.04
2022-11-21T20:41:08.216Z,78.97
2022-11-21T20:44:25.201Z,78.94
2022-11-21T20:46:33.253Z,79.00
2022-11-21T20:49:05.203Z,79.02
2022-11-21T20:54:29.581Z,79.14
2022-11-21T20:57:01.659Z,78.98
2022-11-21T20:59:33.644Z,79.20
2022-11-21T21:02:06.333Z,79.57
2022-11-21T21:04:38.253Z,79.24
2022-11-21T21:07:10.301Z,79.38
2022-11-21T21:09:42.134Z,79.12
2022-11-21T21:12:14.000Z,79.13
2022-11-21T21:14:45.856Z,79.38
2022-11-21T21:17:17.758Z,79.53
2022-11-21T21:19:49.776Z,79.58
2022-11-21T21:22:21.653Z,79.70
2022-11-21T21:24:53.518Z,79.21
2022-11-21T21:27:25.708Z,79.52
2022-11-21T21:29:57.663Z,79.48
2022-11-21T21:32:29.721Z,79.58
2022-11-21T21:35:02.747Z,79.90
2022-11-21T21:37:34.778Z,80.00
2022-11-21T21:40:07.498Z,79.99
2022-11-21T21:42:39.380Z,80.05
2022-11-21T21:45:11.530Z,79.73
2022-11-21T21:47:43.453Z,79.93
2022-11-21T21:50:16.074Z,79.94
2022-11-21T21:52:48.210Z,79.79
2022-11-21T21:55:20.026Z,80.23
2022-11-21T21:57:52.727Z,80.00
2022-11-21T22:00:24.641Z,80.37
2022-11-21T22:02:56.508Z,80.50
2022-11-21T22:05:28.590Z,80.31
2022-11-21T22:08:00.489Z,80.16
2022-11-21T22:10:32.335Z,80.53
2022-11-21T22:13:04.207Z,80.68
2022-11-21T22:15:36.128Z,80.27
2022-11-21T22:18:08.061Z,80.54
2022-11-21T22:20:39.978Z,80.55
2022-11-21T22:23:11.861Z,80.44
2022-11-21T22:25:43.730Z,80.49
2022-11-21T22:28:15.835Z,80.37
2022-11-21T22:30:58.392Z,80.45
2022-11-21T22:33:30.211Z,80.40
2022-11-21T22:36:04.091Z,80.40
2022-11-21T22:38:36.355Z,80.00
2022-11-21T22:41:14.232Z,80.42
2022-11-21T22:43:53.054Z,80.35
2022-11-21T22:46:29.946Z,80.55
2022-11-21T22:49:02.079Z,80.31
2022-11-21T22:51:34.592Z,80.55
2022-11-21T22:54:06.622Z,80.23
2022-11-21T22:56:38.410Z,80.38
2022-11-21T22:59:12.777Z,80.65
2022-11-21T23:01:44.762Z,80.78
2022-11-21T23:04:18.040Z,80.84
2022-11-21T23:06:50.056Z,80.64
2022-11-21T23:09:21.958Z,80.68
2022-11-21T23:11:53.797Z,80.86
2022-11-21T23:14:25.689Z,81.19
2022-11-21T23:16:57.584Z,80.92
2022-11-21T23:19:29.863Z,81.14
2022-11-21T23:22:01.859Z,81.03
2022-11-21T23:24:33.697Z,81.17
2022-11-21T23:27:05.555Z,80.78
2022-11-21T23:29:37.427Z,80.87
2022-11-21T23:32:09.566Z,80.90
2022-11-21T23:34:41.410Z,80.95
2022-11-21T23:37:13.281Z,81.18
2022-11-21T23:39:45.198Z,81.64
2022-11-21T23:42:17.132Z,81.51
2022-11-21T23:44:49.022Z,81.80
2022-11-21T23:47:20.919Z,81.22
2022-11-21T23:49:52.748Z,81.50
2022-11-21T23:52:24.710Z,81.47
2022-11-21T23:54:56.728Z,81.49
2022-11-21T23:57:28.585Z,81.49
